Time;durP1;ratioP1;P1;durP2;ratioP2;P2;SDS_P1;SDS_P2;PMS_P1;PMS_P2;Temp;Humidity;BMP_temperature;BMP_pressure;BME280_temperature;BME280_humidity;BME280_pressure;Samples;Min_cycle;Max_cycle;Signal;HPM_P1;HPM_P2
2022/03/10 00:01:52;;;;;;;4.90;1.05;;;17.20;99.90;;;;;;5093802;28;20024;-75
2022/03/10 00:04:20;;;;;;;4.50;1.00;;;17.20;99.90;;;;;;5094585;28;20534;-77
2022/03/10 00:06:47;;;;;;;4.75;1.13;;;17.10;99.90;;;;;;5095241;28;20044;-75
2022/03/10 00:09:16;;;;;;;6.30;1.20;;;17.10;99.90;;;;;;5094539;28;20031;-79
2022/03/10 00:11:43;;;;;;;3.78;1.58;;;17.20;99.90;;;;;;5094850;28;20035;-79
2022/03/10 00:14:11;;;;;;;5.25;1.33;;;17.40;99.90;;;;;;5094545;28;20062;-77
2022/03/10 00:16:39;;;;;;;5.57;1.20;;;17.40;99.90;;;;;;5094545;28;20088;-76
2022/03/10 00:19:07;;;;;;;2.60;0.93;;;17.40;99.90;;;;;;5094438;28;20020;-78
2022/03/10 00:21:35;;;;;;;5.18;1.40;;;17.50;99.90;;;;;;5094181;28;20024;-77
2022/03/10 00:24:03;;;;;;;4.70;1.10;;;17.60;99.90;;;;;;5094257;28;20103;-76
2022/03/10 00:26:30;;;;;;;6.00;1.48;;;17.70;99.90;;;;;;5094531;28;20127;-76
2022/03/10 00:28:58;;;;;;;4.57;1.33;;;17.70;99.90;;;;;;5094332;28;20016;-75
2022/03/10 00:31:26;;;;;;;2.65;0.85;;;17.80;99.90;;;;;;5092928;28;20508;-76
2022/03/10 00:33:53;;;;;;;4.03;1.50;;;17.80;99.90;;;;;;5076006;28;20024;-77
2022/03/10 00:36:24;;;;;;;5.78;1.13;;;18.00;99.90;;;;;;5094102;28;20491;-75
2022/03/10 00:38:52;;;;;;;4.03;1.25;;;18.00;99.90;;;;;;5093958;28;20106;-76
2022/03/10 00:41:21;;;;;;;8.73;1.55;;;18.10;99.90;;;;;;5093907;28;20024;-76
2022/03/10 00:43:49;;;;;;;5.97;2.15;;;18.20;99.90;;;;;;5093836;28;20109;-76
2022/03/10 00:46:17;;;;;;;9.02;1.58;;;18.30;99.90;;;;;;5093831;28;20024;-77
2022/03/10 00:48:44;;;;;;;4.78;1.38;;;18.40;99.90;;;;;;5092390;28;20024;-75
2022/03/10 00:51:12;;;;;;;9.75;1.30;;;18.40;99.90;;;;;;5092063;28;20047;-76
2022/03/10 00:53:40;;;;;;;3.15;1.15;;;18.40;99.90;;;;;;5093781;28;20078;-75
2022/03/10 00:56:08;;;;;;;10.57;2.03;;;18.30;99.90;;;;;;5093772;28;20472;-79
2022/03/10 00:58:35;;;;;;;5.70;1.33;;;18.30;99.90;;;;;;5093544;28;20020;-78
2022/03/10 01:01:03;;;;;;;2.70;1.00;;;18.20;99.90;;;;;;5092930;28;20093;-80
2022/03/10 01:03:31;;;;;;;7.00;1.02;;;18.20;99.90;;;;;;5092736;28;20451;-77
2022/03/10 01:05:58;;;;;;;5.82;1.20;;;18.20;99.90;;;;;;5092665;28;20022;-76
2022/03/10 01:08:26;;;;;;;6.75;1.17;;;18.30;99.90;;;;;;5093024;28;20020;-75
2022/03/10 01:10:54;;;;;;;4.50;1.20;;;18.40;99.90;;;;;;5085867;28;21973;-78
2022/03/10 01:13:22;;;;;;;3.40;0.63;;;18.40;99.90;;;;;;5089653;28;20099;-76
2022/03/10 01:15:49;;;;;;;5.70;1.67;;;18.40;99.90;;;;;;5091545;28;20034;-76
2022/03/10 01:18:17;;;;;;;4.85;0.75;;;18.40;99.90;;;;;;5092463;28;20052;-76
2022/03/10 01:20:45;;;;;;;4.53;1.73;;;18.40;99.90;;;;;;5092701;28;20039;-79
2022/03/10 01:23:13;;;;;;;3.72;1.33;;;18.40;99.90;;;;;;5092837;28;20043;-78
2022/03/10 01:25:40;;;;;;;7.55;0.90;;;18.40;99.90;;;;;;5092748;28;20110;-78
2022/03/10 01:28:08;;;;;;;3.95;1.23;;;18.50;99.90;;;;;;5092557;28;20476;-76
2022/03/10 01:30:35;;;;;;;4.30;1.00;;;18.60;99.90;;;;;;5088333;28;20124;-77
2022/03/10 01:33:03;;;;;;;8.45;2.00;;;18.60;99.90;;;;;;5092559;28;20025;-78
2022/03/10 01:35:30;;;;;;;7.93;1.33;;;18.70;99.90;;;;;;5092720;28;20039;-77
2022/03/10 01:37:57;;;;;;;4.25;0.95;;;18.80;99.90;;;;;;5094049;28;20055;-77
2022/03/10 01:40:25;;;;;;;5.65;1.10;;;18.80;99.90;;;;;;5097356;28;20020;-77
2022/03/10 01:42:53;;;;;;;7.95;1.70;;;19.00;99.90;;;;;;5097209;28;20024;-78
2022/03/10 01:45:20;;;;;;;4.43;1.13;;;19.00;99.90;;;;;;5097449;28;20020;-77
2022/03/10 01:47:48;;;;;;;5.88;0.80;;;19.10;99.90;;;;;;5097122;28;20028;-75
2022/03/10 01:50:16;;;;;;;3.53;0.85;;;19.10;99.90;;;;;;5095965;28;20043;-75
2022/03/10 01:52:44;;;;;;;7.85;1.13;;;19.10;99.90;;;;;;5096390;28;20078;-75
2022/03/10 01:55:12;;;;;;;3.92;1.05;;;19.20;99.90;;;;;;5099515;28;20102;-74
2022/03/10 01:57:43;;;;;;;7.00;1.35;;;19.10;99.90;;;;;;5101556;28;20032;-75
2022/03/10 02:00:12;;;;;;;6.00;0.85;;;19.20;99.90;;;;;;5099642;28;20028;-75
2022/03/10 02:02:40;;;;;;;7.53;1.25;;;19.30;99.90;;;;;;5096543;28;20020;-76
2022/03/10 02:05:07;;;;;;;4.20;0.80;;;19.30;99.90;;;;;;5095187;28;20358;-75
2022/03/10 02:10:20;;;;;;;3.03;1.00;;;19.30;99.90;;;;;;5095304;28;20043;-75
2022/03/10 02:12:53;;;;;;;4.50;0.90;;;19.40;99.90;;;;;;5096107;28;20036;-76
2022/03/10 02:18:08;;;;;;;3.65;0.95;;;19.50;99.90;;;;;;5096994;28;20065;-75
2022/03/10 02:20:37;;;;;;;3.70;0.70;;;19.60;99.90;;;;;;5096625;28;20024;-75
2022/03/10 02:23:06;;;;;;;7.15;1.17;;;19.60;99.90;;;;;;5096558;28;20020;-74
2022/03/10 02:25:36;;;;;;;6.07;1.67;;;19.60;99.90;;;;;;5095647;28;20153;-73
2022/03/10 02:28:03;;;;;;;6.28;1.50;;;19.70;99.90;;;;;;5095937;28;20499;-75
2022/03/10 02:30:31;;;;;;;4.53;1.00;;;19.70;99.90;;;;;;5094567;28;20032;-75
2022/03/10 02:32:59;;;;;;;6.57;1.08;;;19.70;99.90;;;;;;5096421;28;20020;-73
2022/03/10 02:35:27;;;;;;;3.55;0.82;;;19.60;99.90;;;;;;5096344;28;20075;-76
2022/03/10 02:37:56;;;;;;;4.45;0.95;;;19.70;99.90;;;;;;5096344;28;20020;-75
2022/03/10 02:40:23;;;;;;;1.60;0.55;;;19.70;99.90;;;;;;5096145;28;20031;-76
2022/03/10 02:42:51;;;;;;;6.57;0.80;;;19.60;99.90;;;;;;5096084;28;20032;-76
2022/03/10 02:45:18;;;;;;;3.92;1.42;;;19.50;99.90;;;;;;5096189;28;20024;-76
2022/03/10 02:47:45;;;;;;;5.60;1.08;;;19.60;99.90;;;;;;5096268;28;20422;-75
2022/03/10 02:50:13;;;;;;;4.60;1.52;;;19.60;99.90;;;;;;5094631;28;20043;-75
2022/03/10 02:52:42;;;;;;;7.78;1.55;;;19.60;99.90;;;;;;5095959;28;20048;-76
2022/03/10 02:55:10;;;;;;;5.50;0.88;;;19.80;99.90;;;;;;5096205;28;20054;-75
2022/03/10 02:57:37;;;;;;;5.47;1.42;;;19.80;99.90;;;;;;5095740;28;20457;-75
2022/03/10 03:00:08;;;;;;;3.92;1.20;;;19.90;99.90;;;;;;5095208;28;20062;-75
2022/03/10 03:02:35;;;;;;;8.38;1.88;;;19.90;99.90;;;;;;5095416;28;20031;-76
2022/03/10 03:05:04;;;;;;;3.60;1.33;;;19.90;99.90;;;;;;5095649;28;20019;-74
2022/03/10 03:07:31;;;;;;;2.95;1.30;;;19.80;99.90;;;;;;5092711;28;20038;-75
2022/03/10 03:09:59;;;;;;;5.45;1.65;;;19.70;99.90;;;;;;5094718;28;20027;-75
2022/03/10 03:12:26;;;;;;;6.78;1.02;;;19.60;99.90;;;;;;5094636;28;20028;-75
2022/03/10 03:14:54;;;;;;;7.07;1.13;;;19.70;99.90;;;;;;5094721;28;20091;-75
2022/03/10 03:17:21;;;;;;;8.88;1.10;;;19.90;99.90;;;;;;5094749;28;20035;-75
2022/03/10 03:19:48;;;;;;;3.55;1.17;;;20.00;99.90;;;;;;5094805;28;20023;-75
2022/03/10 03:22:16;;;;;;;4.18;0.95;;;20.20;99.90;;;;;;5094991;28;20020;-76
2022/03/10 03:24:45;;;;;;;4.25;1.35;;;20.30;99.90;;;;;;5094827;28;20418;-74
2022/03/10 03:27:12;;;;;;;3.10;0.73;;;20.30;99.90;;;;;;5088744;28;20024;-76
2022/03/10 03:29:40;;;;;;;7.43;1.65;;;20.20;99.90;;;;;;5094699;28;20016;-78
2022/03/10 03:32:07;;;;;;;3.40;1.02;;;20.20;99.90;;;;;;5094571;28;20042;-75
2022/03/10 03:34:35;;;;;;;8.23;1.27;;;20.20;99.90;;;;;;5094482;28;20016;-76
2022/03/10 03:37:02;;;;;;;6.63;1.55;;;20.20;99.90;;;;;;5094697;28;20016;-76
2022/03/10 03:39:30;;;;;;;6.30;1.13;;;20.30;99.90;;;;;;5094282;28;20051;-76
2022/03/10 03:41:57;;;;;;;11.77;1.42;;;20.30;99.90;;;;;;5095005;28;20499;-75
2022/03/10 03:44:25;;;;;;;5.68;1.33;;;20.30;99.90;;;;;;5094986;28;20030;-75
2022/03/10 03:46:52;;;;;;;4.53;1.50;;;20.30;99.90;;;;;;5095035;28;20025;-75
2022/03/10 03:49:19;;;;;;;5.78;1.13;;;20.40;99.90;;;;;;5094112;28;20079;-79
2022/03/10 03:51:47;;;;;;;5.43;1.75;;;20.60;99.90;;;;;;5092655;28;20040;-75
2022/03/10 03:54:14;;;;;;;5.38;1.40;;;20.60;99.90;;;;;;5094335;28;20020;-75
2022/03/10 03:56:41;;;;;;;9.57;1.83;;;20.50;99.90;;;;;;5094281;28;20042;-77
2022/03/10 03:59:08;;;;;;;5.70;1.33;;;20.40;99.90;;;;;;5093914;28;20020;-76
2022/03/10 04:01:36;;;;;;;6.13;1.77;;;20.30;99.90;;;;;;5093907;28;20377;-75
2022/03/10 04:04:03;;;;;;;7.00;1.38;;;20.20;99.90;;;;;;5088305;28;20016;-76
2022/03/10 04:06:31;;;;;;;4.78;1.08;;;20.10;99.90;;;;;;5086699;28;20472;-76
2022/03/10 04:08:58;;;;;;;4.15;1.35;;;20.00;99.90;;;;;;5094446;28;20385;-76
2022/03/10 04:11:26;;;;;;;3.47;1.00;;;20.00;99.90;;;;;;5094084;28;20040;-76
2022/03/10 04:13:53;;;;;;;8.45;1.60;;;19.90;99.90;;;;;;5094301;28;20024;-76
2022/03/10 04:16:20;;;;;;;5.20;1.80;;;19.80;99.90;;;;;;5094130;28;20039;-75
2022/03/10 04:18:48;;;;;;;8.10;1.95;;;19.80;99.90;;;;;;5094224;28;20020;-76
2022/03/10 04:21:15;;;;;;;2.90;0.93;;;19.80;99.90;;;;;;5094217;28;20570;-75
2022/03/10 04:23:42;;;;;;;4.75;1.55;;;19.80;99.90;;;;;;5093983;28;20480;-75
2022/03/10 04:26:09;;;;;;;4.80;1.15;;;19.80;99.90;;;;;;5093579;28;20065;-73
2022/03/10 04:28:37;;;;;;;10.40;1.73;;;19.80;99.90;;;;;;5094453;28;20100;-77
2022/03/10 04:31:04;;;;;;;9.32;2.10;;;19.70;99.90;;;;;;5094217;28;20039;-75
2022/03/10 04:33:32;;;;;;;3.50;1.17;;;19.70;99.90;;;;;;5094297;28;20022;-75
2022/03/10 04:35:59;;;;;;;10.05;1.80;;;19.70;99.90;;;;;;5094171;28;20031;-76
2022/03/10 04:38:27;;;;;;;4.22;1.30;;;19.70;99.90;;;;;;5093808;28;20361;-76
2022/03/10 04:40:54;;;;;;;6.07;1.65;;;19.70;99.90;;;;;;5092712;28;20024;-76
2022/03/10 04:43:21;;;;;;;10.70;1.45;;;19.70;99.90;;;;;;5092006;28;20020;-75
2022/03/10 04:45:48;;;;;;;6.78;1.58;;;19.70;99.90;;;;;;5086221;28;20020;-75
2022/03/10 04:48:16;;;;;;;9.10;1.98;;;19.60;99.90;;;;;;5089643;28;20016;-76
2022/03/10 04:50:43;;;;;;;5.72;1.35;;;19.70;99.90;;;;;;5092341;28;20040;-75
2022/03/10 04:53:11;;;;;;;6.28;1.48;;;19.60;99.90;;;;;;5093500;28;20028;-76
2022/03/10 04:55:38;;;;;;;11.07;1.60;;;19.60;99.90;;;;;;5091842;28;20032;-76
2022/03/10 04:58:05;;;;;;;5.70;1.13;;;19.60;99.90;;;;;;5090276;28;20492;-76
2022/03/10 05:00:33;;;;;;;6.57;1.52;;;19.60;99.90;;;;;;5093511;28;20020;-76
2022/03/10 05:03:00;;;;;;;7.65;1.33;;;19.80;99.90;;;;;;5093438;28;20039;-75
2022/03/10 05:05:28;;;;;;;6.75;0.93;;;20.00;99.90;;;;;;5093474;28;20016;-76
2022/03/10 05:07:55;;;;;;;9.20;1.80;;;20.00;99.90;;;;;;5093243;28;20081;-76
2022/03/10 05:10:22;;;;;;;5.38;1.35;;;20.00;99.90;;;;;;5092140;28;20031;-76
2022/03/10 05:12:53;;;;;;;6.70;1.10;;;19.90;99.90;;;;;;5092559;28;20061;-76
2022/03/10 05:15:23;;;;;;;5.00;1.25;;;19.70;99.90;;;;;;5093339;28;20020;-77
2022/03/10 05:17:52;;;;;;;8.50;1.35;;;19.70;99.90;;;;;;5092580;28;20477;-76
2022/03/10 05:20:19;;;;;;;4.82;1.73;;;19.60;99.90;;;;;;5093532;28;20020;-75
2022/03/10 05:22:55;;;;;;;13.90;2.03;;;19.60;99.90;;;;;;5093539;28;20459;-76
2022/03/10 05:25:23;;;;;;;;;;;19.50;99.90;;;;;;5093945;28;20076;-76
2022/03/10 05:27:51;;;;;;;8.07;1.92;;;19.40;99.90;;;;;;5093324;28;19998;-78
2022/03/10 05:30:20;;;;;;;4.00;1.17;;;19.40;99.90;;;;;;5093354;28;20046;-76
2022/03/10 05:32:47;;;;;;;5.72;1.10;;;19.40;99.90;;;;;;5091196;28;20404;-75
2022/03/10 05:35:16;;;;;;;3.35;0.55;;;19.30;99.90;;;;;;5093240;28;20023;-75
2022/03/10 05:37:46;;;;;;;6.32;1.17;;;19.30;99.90;;;;;;5093159;28;20031;-76
2022/03/10 05:40:19;;;;;;;8.18;1.73;;;19.30;99.90;;;;;;5091825;28;20027;-78
2022/03/10 05:42:46;;;;;;;6.55;2.08;;;19.30;99.90;;;;;;5093300;28;20028;-77
2022/03/10 05:45:20;;;;;;;8.32;1.58;;;19.30;99.90;;;;;;5093169;28;20049;-76
2022/03/10 05:47:48;;;;;;;5.38;1.00;;;19.30;99.90;;;;;;5093399;28;20016;-76
2022/03/10 05:50:16;;;;;;;8.30;1.50;;;19.30;99.90;;;;;;5091626;28;20055;-77
2022/03/10 05:52:45;;;;;;;9.18;2.22;;;19.30;99.90;;;;;;5093159;28;20039;-75
2022/03/10 05:55:14;;;;;;;5.75;1.60;;;19.40;99.90;;;;;;5093208;28;20025;-76
2022/03/10 05:57:42;;;;;;;9.05;1.75;;;19.30;99.90;;;;;;5093052;28;20103;-75
2022/03/10 06:00:11;;;;;;;5.57;1.02;;;19.30;99.90;;;;;;5093201;28;20028;-75
2022/03/10 06:02:39;;;;;;;6.15;1.60;;;19.30;99.90;;;;;;5093228;28;20022;-75
2022/03/10 06:05:10;;;;;;;8.40;1.40;;;19.20;99.90;;;;;;5092979;28;20024;-76
2022/03/10 06:07:37;;;;;;;5.90;1.55;;;19.10;99.90;;;;;;5093262;28;20016;-76
2022/03/10 06:10:08;;;;;;;7.75;1.20;;;19.10;99.90;;;;;;5093011;28;20021;-76
2022/03/10 06:12:36;;;;;;;8.20;1.55;;;19.10;99.90;;;;;;5093116;28;20032;-75
2022/03/10 06:15:08;;;;;;;5.07;1.13;;;19.10;99.90;;;;;;5093150;28;20020;-76
2022/03/10 06:17:35;;;;;;;5.63;1.15;;;19.10;99.90;;;;;;5092986;28;20024;-76
2022/03/10 06:20:05;;;;;;;5.38;1.15;;;19.10;99.90;;;;;;5092790;28;20024;-76
2022/03/10 06:22:33;;;;;;;4.65;1.38;;;19.10;99.90;;;;;;5092800;28;20031;-76
2022/03/10 06:25:01;;;;;;;8.88;1.58;;;19.10;99.90;;;;;;5095919;28;20481;-76
2022/03/10 06:27:28;;;;;;;2.63;0.98;;;19.10;99.90;;;;;;5096706;28;20020;-77
2022/03/10 06:29:56;;;;;;;5.70;1.02;;;19.10;99.90;;;;;;5096991;28;20020;-79
2022/03/10 06:32:25;;;;;;;3.90;1.20;;;19.10;99.90;;;;;;5096277;28;20063;-77
2022/03/10 06:34:56;;;;;;;3.45;1.10;;;19.10;99.90;;;;;;5096473;28;20020;-76
2022/03/10 06:37:24;;;;;;;5.03;1.17;;;19.00;99.90;;;;;;5096807;28;20027;-77
2022/03/10 06:39:52;;;;;;;4.97;1.25;;;18.90;99.90;;;;;;5095214;28;20120;-77
2022/03/10 06:42:20;;;;;;;4.25;1.30;;;18.90;99.90;;;;;;5096244;28;20465;-77
2022/03/10 06:44:47;;;;;;;7.97;1.25;;;18.90;99.90;;;;;;5096390;28;20021;-75
2022/03/10 06:47:15;;;;;;;6.70;1.48;;;18.90;99.90;;;;;;5094891;28;20024;-75
2022/03/10 06:49:42;;;;;;;5.68;0.90;;;18.90;99.90;;;;;;5095916;28;20040;-76
2022/03/10 06:52:10;;;;;;;5.43;1.70;;;18.80;99.90;;;;;;5096118;28;20024;-76
2022/03/10 06:54:38;;;;;;;7.00;1.70;;;18.80;99.90;;;;;;5095693;28;20023;-78
2022/03/10 06:57:07;;;;;;;12.02;1.45;;;18.70;99.90;;;;;;5096060;28;20028;-76
2022/03/10 06:59:37;;;;;;;6.80;1.00;;;18.70;99.90;;;;;;5083775;28;20020;-75
2022/03/10 07:02:05;;;;;;;5.80;1.40;;;18.70;99.90;;;;;;5074336;28;20024;-75
2022/03/10 07:04:33;;;;;;;5.20;1.00;;;18.70;99.90;;;;;;5075086;28;20012;-76
2022/03/10 07:07:00;;;;;;;3.85;1.08;;;18.70;99.90;;;;;;5072302;28;20071;-75
2022/03/10 07:09:27;;;;;;;5.38;1.00;;;18.70;99.90;;;;;;5072691;28;20025;-76
2022/03/10 07:11:55;;;;;;;5.72;1.08;;;18.70;99.90;;;;;;5073255;28;20496;-76
2022/03/10 07:14:22;;;;;;;4.07;1.20;;;18.70;99.90;;;;;;5074630;28;20108;-76
2022/03/10 07:16:49;;;;;;;4.28;1.02;;;18.70;99.90;;;;;;5075393;28;20025;-76
2022/03/10 07:19:17;;;;;;;3.05;1.60;;;18.70;99.90;;;;;;5074631;28;20016;-76
2022/03/10 07:21:44;;;;;;;6.38;1.00;;;18.60;99.90;;;;;;5075206;28;20025;-75
2022/03/10 07:24:12;;;;;;;9.75;1.50;;;18.60;99.90;;;;;;5075200;28;20032;-76
2022/03/10 07:26:39;;;;;;;4.65;1.30;;;18.50;99.90;;;;;;5075046;28;20103;-76
2022/03/10 07:29:07;;;;;;;7.50;1.23;;;18.50;99.90;;;;;;5082213;28;20031;-77
2022/03/10 07:31:34;;;;;;;7.10;1.13;;;18.40;99.90;;;;;;5075056;28;20082;-77
2022/03/10 07:34:01;;;;;;;4.03;0.95;;;18.40;99.90;;;;;;5077427;28;20020;-76
2022/03/10 07:36:29;;;;;;;16.88;2.10;;;18.40;99.90;;;;;;5081309;28;20047;-77
2022/03/10 07:38:56;;;;;;;5.68;0.93;;;18.30;99.90;;;;;;5073100;28;20429;-76
2022/03/10 07:41:24;;;;;;;5.55;1.38;;;18.40;99.90;;;;;;5073028;28;20028;-76
2022/03/10 07:43:51;;;;;;;6.90;1.15;;;18.30;99.90;;;;;;5072817;28;20045;-76
2022/03/10 07:46:22;;;;;;;3.90;0.88;;;18.40;99.90;;;;;;5071810;28;20044;-76
2022/03/10 07:48:51;;;;;;;4.30;1.00;;;18.40;99.90;;;;;;5072079;28;20059;-76
2022/03/10 07:51:22;;;;;;;2.25;1.05;;;18.30;99.90;;;;;;5071528;28;20056;-76
2022/03/10 07:53:49;;;;;;;10.13;1.10;;;18.30;99.90;;;;;;5072679;28;20493;-79
2022/03/10 07:56:17;;;;;;;1.80;0.90;;;18.30;99.90;;;;;;5073198;28;20382;-79
2022/03/10 07:58:45;;;;;;;6.07;1.00;;;18.30;99.90;;;;;;5073681;28;20017;-79
2022/03/10 08:01:15;;;;;;;7.82;1.13;;;18.30;99.90;;;;;;5073781;28;20016;-79
2022/03/10 08:03:42;;;;;;;6.60;0.90;;;18.30;99.90;;;;;;5073748;28;20020;-79
2022/03/10 08:06:10;;;;;;;2.88;0.82;;;18.30;99.90;;;;;;5076766;28;20026;-80
2022/03/10 08:08:37;;;;;;;5.00;0.70;;;18.20;99.90;;;;;;5093895;28;20373;-78
2022/03/10 08:11:06;;;;;;;7.32;1.10;;;18.30;99.90;;;;;;5093948;28;20024;-79
2022/03/10 08:13:33;;;;;;;8.02;1.13;;;18.20;99.90;;;;;;5094011;28;20024;-78
2022/03/10 08:16:01;;;;;;;2.13;0.85;;;18.20;99.90;;;;;;5093783;28;20059;-78
2022/03/10 08:18:30;;;;;;;3.45;0.93;;;18.20;99.90;;;;;;5093326;28;20020;-78
2022/03/10 08:21:01;;;;;;;6.97;1.13;;;18.20;99.90;;;;;;5091763;28;20032;-79
2022/03/10 08:23:29;;;;;;;4.47;0.85;;;18.10;99.90;;;;;;5076750;28;20035;-79
2022/03/10 08:25:56;;;;;;;1.83;0.50;;;18.10;99.90;;;;;;5081285;28;20017;-79
2022/03/10 08:28:26;;;;;;;3.20;0.77;;;18.10;99.90;;;;;;5084881;28;20063;-80
2022/03/10 08:30:53;;;;;;;1.60;0.75;;;18.10;99.90;;;;;;5086587;28;20020;-79
2022/03/10 08:33:21;;;;;;;5.70;0.80;;;18.10;99.90;;;;;;5090632;28;20053;-79
2022/03/10 08:35:48;;;;;;;4.30;0.93;;;18.10;99.90;;;;;;5087543;28;20017;-80
2022/03/10 08:38:16;;;;;;;3.63;0.93;;;18.00;99.90;;;;;;5085731;28;20376;-80
2022/03/10 08:40:44;;;;;;;6.72;1.00;;;18.00;99.90;;;;;;5087712;28;20389;-80
2022/03/10 08:43:12;;;;;;;3.65;1.10;;;18.00;99.90;;;;;;5088019;28;20027;-80
2022/03/10 08:45:40;;;;;;;5.38;1.10;;;18.00;99.90;;;;;;5088120;28;20024;-79
2022/03/10 08:48:08;;;;;;;5.55;0.70;;;17.90;99.90;;;;;;5086817;28;20500;-79
2022/03/10 08:50:36;;;;;;;3.08;0.65;;;17.90;99.90;;;;;;5084271;28;20055;-79
2022/03/10 08:53:04;;;;;;;4.65;1.00;;;17.90;99.90;;;;;;5087017;28;20035;-79
2022/03/10 08:55:31;;;;;;;11.13;1.02;;;17.90;99.90;;;;;;5085662;28;20081;-79
2022/03/10 08:58:00;;;;;;;7.28;1.35;;;17.90;99.90;;;;;;5087849;28;20020;-78
2022/03/10 09:00:27;;;;;;;3.53;0.75;;;17.90;99.90;;;;;;5086663;28;20031;-79
2022/03/10 09:02:55;;;;;;;4.07;1.00;;;17.90;99.90;;;;;;5086652;28;20103;-78
2022/03/10 09:05:22;;;;;;;4.07;0.93;;;17.90;99.90;;;;;;5078205;28;20024;-79
2022/03/10 09:07:49;;;;;;;4.05;1.17;;;17.90;99.90;;;;;;5075428;28;20115;-78
2022/03/10 09:10:17;;;;;;;5.57;1.15;;;17.90;99.90;;;;;;5071936;28;20017;-79
2022/03/10 09:12:44;;;;;;;4.05;0.60;;;17.90;99.90;;;;;;5071978;28;20029;-79
2022/03/10 09:15:12;;;;;;;3.72;1.05;;;17.90;99.90;;;;;;5072010;28;20024;-79
2022/03/10 09:17:39;;;;;;;7.50;1.30;;;17.90;99.90;;;;;;5071422;28;20024;-78
2022/03/10 09:20:08;;;;;;;2.72;1.10;;;17.90;99.90;;;;;;5071660;28;20504;-78
2022/03/10 09:22:35;;;;;;;2.70;0.50;;;17.80;99.90;;;;;;5072187;28;20101;-78
2022/03/10 09:25:05;;;;;;;5.47;0.75;;;17.80;99.90;;;;;;5071710;28;20126;-78
2022/03/10 09:27:33;;;;;;;5.18;0.93;;;17.80;99.90;;;;;;5070521;28;20471;-79
2022/03/10 09:30:00;;;;;;;7.07;0.95;;;17.80;99.90;;;;;;5070940;28;20017;-77
2022/03/10 09:32:34;;;;;;;6.25;1.13;;;17.80;99.90;;;;;;5076295;28;20082;-79
2022/03/10 09:35:03;;;;;;;6.85;1.30;;;17.80;99.90;;;;;;5076285;28;20059;-79
2022/03/10 09:37:31;;;;;;;4.80;1.05;;;17.70;99.90;;;;;;5073573;28;20428;-75
2022/03/10 09:39:58;;;;;;;3.45;0.60;;;17.70;99.90;;;;;;5071797;28;20895;-76
2022/03/10 09:42:34;;;;;;;3.22;0.73;;;17.70;99.90;;;;;;5071386;28;20056;-78
2022/03/10 09:45:11;;;;;;;5.10;0.75;;;17.70;99.90;;;;;;5071572;28;20055;-75
2022/03/10 09:47:42;;;;;;;4.78;1.00;;;17.80;99.90;;;;;;5071557;28;20036;-75
2022/03/10 09:50:11;;;;;;;2.30;0.73;;;17.80;99.90;;;;;;5075884;28;20040;-75
2022/03/10 09:52:40;;;;;;;5.78;0.93;;;17.80;99.90;;;;;;5081537;28;20432;-76
2022/03/10 09:55:09;;;;;;;5.28;1.13;;;17.80;99.90;;;;;;5091213;28;20090;-79
2022/03/10 09:57:42;;;;;;;10.85;1.08;;;17.80;99.90;;;;;;5090871;28;20373;-75
2022/03/10 10:00:12;;;;;;;4.43;0.93;;;17.90;99.90;;;;;;5094379;28;20042;-75
2022/03/10 10:02:40;;;;;;;5.53;1.00;;;17.90;99.90;;;;;;5076729;28;20404;-78
2022/03/10 10:05:22;;;;;;;2.28;0.95;;;17.90;99.90;;;;;;5094151;28;20077;-77
2022/03/10 10:08:08;;;;;;;3.78;1.10;;;17.90;99.90;;;;;;5095176;28;20073;-76
2022/03/10 10:10:39;;;;;;;3.25;1.13;;;17.90;99.90;;;;;;5090557;28;20027;-75
2022/03/10 10:13:07;;;;;;;4.95;0.75;;;17.90;99.90;;;;;;5095225;28;20503;-75
2022/03/10 10:15:36;;;;;;;5.97;0.93;;;17.80;99.90;;;;;;5095485;28;20066;-74
2022/03/10 10:18:05;;;;;;;6.03;1.08;;;17.80;99.90;;;;;;5089547;28;20020;-75
2022/03/10 10:20:54;;;;;;;6.82;1.27;;;17.80;99.90;;;;;;5083147;28;20099;-77
2022/03/10 10:23:27;;;;;;;4.50;0.98;;;17.80;99.90;;;;;;5081637;28;20048;-74
2022/03/10 10:26:00;;;;;;;3.17;0.60;;;17.70;99.90;;;;;;5081809;28;20428;-75
2022/03/10 10:28:35;;;;;;;4.15;1.15;;;17.70;99.90;;;;;;5081512;28;20017;-75
2022/03/10 10:31:10;;;;;;;3.67;0.70;;;17.70;99.90;;;;;;5081828;28;20107;-75
2022/03/10 10:33:40;;;;;;;1.77;0.50;;;17.60;99.90;;;;;;5080810;28;20119;-75
2022/03/10 10:36:28;;;;;;;4.05;1.02;;;17.60;99.90;;;;;;5079063;28;20036;-75
2022/03/10 10:39:07;;;;;;;5.28;1.23;;;17.60;99.90;;;;;;5089172;28;20473;-75
2022/03/10 10:41:35;;;;;;;2.97;1.05;;;17.60;99.90;;;;;;5079563;28;20473;-75
2022/03/10 10:44:08;;;;;;;7.35;1.50;;;17.60;99.90;;;;;;5080165;28;20150;-74
2022/03/10 10:46:38;;;;;;;4.18;0.73;;;17.50;99.90;;;;;;5078605;28;20063;-74
2022/03/10 10:49:09;;;;;;;3.60;0.77;;;17.50;99.90;;;;;;5079087;28;20051;-76
2022/03/10 10:51:51;;;;;;;6.00;0.73;;;17.60;99.90;;;;;;5080058;28;20138;-74
2022/03/10 10:54:24;;;;;;;7.32;1.00;;;17.50;99.90;;;;;;5078673;28;20023;-74
2022/03/10 10:57:05;;;;;;;7.72;1.17;;;17.50;99.90;;;;;;5080536;28;20032;-78
2022/03/10 10:59:35;;;;;;;2.75;0.77;;;17.50;99.90;;;;;;5086484;28;20028;-75
2022/03/10 11:02:13;;;;;;;2.63;0.90;;;17.40;99.90;;;;;;5089474;28;20106;-75
2022/03/10 11:04:43;;;;;;;5.38;1.05;;;17.40;99.90;;;;;;5077414;28;20028;-74
2022/03/10 11:07:11;;;;;;;6.43;1.73;;;17.40;99.90;;;;;;5074137;28;20016;-74
2022/03/10 11:09:41;;;;;;;2.67;0.50;;;17.40;99.90;;;;;;5074688;28;20051;-73
2022/03/10 11:12:10;;;;;;;4.53;0.65;;;17.30;99.90;;;;;;5073660;28;20020;-73
2022/03/10 11:14:39;;;;;;;3.33;0.90;;;17.30;99.90;;;;;;5075966;28;20025;-73
2022/03/10 11:17:07;;;;;;;7.93;0.90;;;17.30;99.90;;;;;;5075436;28;20031;-75
2022/03/10 11:19:38;;;;;;;7.70;1.45;;;17.20;99.90;;;;;;5075014;28;20449;-72
2022/03/10 11:22:27;;;;;;;2.63;0.77;;;17.10;99.90;;;;;;5074441;28;20094;-77
2022/03/10 11:25:55;;;;;;;4.75;1.23;;;17.10;99.90;;;;;;5077523;28;20021;-74
2022/03/10 11:28:31;;;;;;;3.75;1.42;;;17.00;99.90;;;;;;5058408;28;20489;-80
2022/03/10 11:31:09;;;;;;;3.22;0.82;;;16.90;99.90;;;;;;5074164;28;20027;-73
2022/03/10 11:33:40;;;;;;;5.38;1.02;;;16.90;99.90;;;;;;5073991;28;20020;-73
2022/03/10 11:36:26;;;;;;;6.00;1.80;;;16.80;99.90;;;;;;5074070;28;20036;-74
2022/03/10 11:39:09;;;;;;;4.43;1.25;;;16.80;99.90;;;;;;5074007;28;20020;-78
2022/03/10 11:41:47;;;;;;;3.22;1.00;;;16.80;99.90;;;;;;5074986;28;20013;-75
2022/03/10 11:44:21;;;;;;;5.07;1.20;;;16.80;99.90;;;;;;5073789;28;20070;-74
2022/03/10 11:47:00;;;;;;;3.95;1.20;;;16.80;99.90;;;;;;5073791;28;20023;-74
2022/03/10 11:49:39;;;;;;;4.72;1.45;;;16.80;99.90;;;;;;5073183;28;20619;-73
2022/03/10 11:52:22;;;;;;;5.70;0.90;;;16.90;99.90;;;;;;5073161;28;20028;-75
2022/03/10 11:55:14;;;;;;;12.32;1.40;;;16.90;99.90;;;;;;5073590;28;20017;-77
2022/03/10 11:57:54;;;;;;;8.00;1.27;;;17.00;99.90;;;;;;5071103;28;20035;-75
2022/03/10 12:00:45;;;;;;;3.70;0.88;;;17.00;99.90;;;;;;5073657;28;20107;-75
2022/03/10 12:03:21;;;;;;;8.02;1.15;;;17.00;99.90;;;;;;5072905;28;20066;-75
2022/03/10 12:06:08;;;;;;;7.82;0.93;;;17.00;99.90;;;;;;5073482;28;20013;-74
2022/03/10 12:08:42;;;;;;;2.92;0.70;;;17.00;99.90;;;;;;5073526;28;20519;-74
2022/03/10 12:11:20;;;;;;;4.55;0.77;;;16.90;99.90;;;;;;5073289;28;20055;-74
2022/03/10 12:13:49;;;;;;;4.07;1.00;;;16.90;99.90;;;;;;5073068;28;20029;-75
2022/03/10 12:16:26;;;;;;;4.55;0.90;;;16.80;99.90;;;;;;5073384;28;20009;-74
2022/03/10 12:18:54;;;;;;;5.78;2.08;;;16.70;99.90;;;;;;5081757;28;20031;-75
2022/03/10 12:21:30;;;;;;;4.82;2.03;;;16.70;99.90;;;;;;5093232;28;20111;-75
2022/03/10 12:24:05;;;;;;;4.05;1.15;;;16.70;99.90;;;;;;5093696;28;20012;-74
2022/03/10 12:26:33;;;;;;;2.80;0.93;;;16.60;99.90;;;;;;5093528;28;20380;-74
2022/03/10 12:29:09;;;;;;;10.23;2.03;;;16.60;99.90;;;;;;5093466;28;20061;-74
2022/03/10 12:31:38;;;;;;;2.53;0.80;;;16.50;99.90;;;;;;5093525;28;20020;-74
2022/03/10 12:34:13;;;;;;;4.10;0.85;;;16.50;99.90;;;;;;5092100;28;20473;-73
2022/03/10 12:36:57;;;;;;;4.80;1.05;;;16.40;99.90;;;;;;5093493;28;20020;-74
2022/03/10 12:39:30;;;;;;;5.50;1.17;;;16.40;99.90;;;;;;5093335;28;20046;-74
2022/03/10 12:42:04;;;;;;;5.38;1.25;;;16.40;99.90;;;;;;5091331;28;20019;-74
2022/03/10 12:44:32;;;;;;;4.88;0.98;;;16.30;99.90;;;;;;5093283;28;20030;-75
2022/03/10 12:47:05;;;;;;;2.80;0.65;;;16.30;99.90;;;;;;5093281;28;20020;-75
2022/03/10 12:49:48;;;;;;;3.83;1.20;;;16.20;99.90;;;;;;5091050;28;20036;-75
2022/03/10 12:52:17;;;;;;;4.05;1.02;;;16.20;99.90;;;;;;5093136;28;20115;-75
2022/03/10 12:54:47;;;;;;;6.20;1.02;;;16.20;99.90;;;;;;5093176;28;20031;-75
2022/03/10 12:57:14;;;;;;;3.72;1.20;;;16.20;99.90;;;;;;5092960;28;20095;-74
2022/03/10 12:59:43;;;;;;;4.22;0.75;;;16.20;99.90;;;;;;5092946;28;20522;-75
2022/03/10 13:02:26;;;;;;;6.60;1.58;;;16.20;99.90;;;;;;5093005;28;20028;-75
2022/03/10 13:04:55;;;;;;;4.38;1.20;;;16.20;99.90;;;;;;5092840;28;20024;-75